Listie, PA (15549)

6:38 PM EDT on September 01, 2014 (GMT -0400)
Somerset Twp 3 | Change Station
CLOSE
Current Station
Personal Weather Station
Location: Somerset, PA
Elevation: 2241 ft
Nearby Weather Stations

Elev 2241 ft 40.02 °N, 79.10 °W | Updated 5 seconds ago

Overcast
Overcast
75.7 °F
Feels Like 76 °F
N
4.5
Wind Variable Wind from NW
Gusts 6.0 mph

Today
High -- | Low -- °F
--% Chance of Precip.
Yesterday
High -- | Low -- °F
Precip. -- in
6:43 AM 7:47 PM
Waxing Crescent, 45% visible
Pressure 29.99 in
Visibility 10.0 miles
Clouds Overcast 9500 ft
Heat Index 76 °F
Dew Point 70 °F
Humidity 81%
Rainfall 0.43 in
Snow Depth Not available.
UV 0 out of 12
Pollen 6.70 out of 12
Ozone Good
PM2.5 Moderate
Flu Activity Not available.
METAR KJST 012154Z AUTO 24006KT 10SM OVC095 24/18 A3003 RMK AO2 SLP154 T02440183

More Conditions Fewer Conditions

Pressure 29.99 in
Visibility 10.0 miles
Clouds Overcast 9500 ft
Heat Index 76 °F
Dew Point 70 °F
Humidity 81%
Rainfall 0.43 in
Snow Depth Not available.
UV 0 out of 12
Pollen 6.70 out of 12
Ozone Good
PM2.5 Moderate
Flu Activity Not available.
METAR KJST 012154Z AUTO 24006KT 10SM OVC095 24/18 A3003 RMK AO2 SLP154 T02440183

More Conditions Fewer Conditions

Nowcast | as of 5:24 PM EDT on September 1, 2014

Isolated showers with perhaps a rumble of thunder can be expected through 700 PM. A brief downpour is possible in some locations.

×

10-Day Weather Forecast

Almanac

Astronomy

Sep. 01, 2014 Rise Set
Actual Time 6:43 AM EDT 7:47 PM EDT
Civil Twilight 6:15 AM EDT 8:15 PM EDT
Nautical Twilight 5:42 AM EDT 8:48 PM EDT
Astronomical Twilight 5:08 AM EDT 9:22 PM EDT
Moon 1:27 PM EDT 11:47 PM EDT
Length of Visible Light 13h 59m
Length of Day
13h 03m
Tomorrow will be 2m 32s shorter.
Waxing Crescent, 45% of the Moon is Illuminated
Today
Waxing Crescent
Sep 2
First Quarter
Sep 8
Full
Sep 15
Last Quarter
Sep 24
New

Today's Extremes

State Highs State Lows

Community

WunderPhotos

Upload Photos

1,749,423 photos uploaded!

Nearby

Air Quality

  Air Quality AQ Index Pollutant
Yesterday Good
PM2.5
Yesterday Good
OZONE
Current Moderate
PM2.5
Current Good
OZONE
Monday Moderate
PM2.5
Monday Good
OZONE
Tuesday Moderate
PM2.5
Tuesday Good
OZONE
Wednesday Good
PM2.5
Wednesday Good
OZONE

Snow Depth

Station Depth Elevation
No new snow has been reported.

Earthquake Activity

City Distance Mag. Time & Date
No recent earthquake activity has been reported nearby.
Minimum magnitude displayed is 2.5.

Coastal Water Temperatures

Place Temperature
No Stations Reporting

Nearby Weather Stations